METAR Data
IDs: Format: Raw Decoded Include TAF

Data at: 0655 UTC 01 Aug 2021

LSGG 010650Z VRB02KT 9999 FEW006 SCT040 BKN060 15/13 Q1013 NOSIG